Time;durP1;ratioP1;P1;durP2;ratioP2;P2;SDS_P1;SDS_P2;PMS_P1;PMS_P2;Temp;Humidity;BMP_temperature;BMP_pressure;BME280_temperature;BME280_humidity;BME280_pressure;Samples;Min_cycle;Max_cycle;Signal;HPM_P1;HPM_P2
2022/09/04 00:01:52;;;;;;;1.77;1.65;;;16.10;60.20;;;;;;605860;237;26633;-66
2022/09/04 00:04:24;;;;;;;1.30;1.20;;;16.10;59.80;;;;;;601475;234;26590;-66
2022/09/04 00:07:13;;;;;;;1.20;1.10;;;16.00;60.40;;;;;;606924;235;26604;-66
2022/09/04 00:09:50;;;;;;;1.25;1.10;;;15.90;60.10;;;;;;607511;235;26659;-66
2022/09/04 00:12:22;;;;;;;2.75;1.30;;;15.90;60.10;;;;;;611392;235;26701;-66
2022/09/04 00:14:45;;;;;;;1.50;1.40;;;15.90;60.00;;;;;;611585;235;26888;-66
2022/09/04 00:17:22;;;;;;;2.05;1.35;;;15.90;62.30;;;;;;608675;235;26699;-66
2022/09/04 00:19:50;;;;;;;1.48;1.25;;;15.80;60.50;;;;;;609502;235;26645;-66
2022/09/04 00:22:23;;;;;;;1.40;1.30;;;15.60;62.00;;;;;;610265;235;26577;-66
2022/09/04 00:25:08;;;;;;;1.52;1.40;;;15.60;61.90;;;;;;609773;236;26572;-66
2022/09/04 00:27:42;;;;;;;1.17;1.17;;;15.60;62.10;;;;;;607056;236;26564;-66
2022/09/04 00:30:05;;;;;;;1.73;1.62;;;15.60;61.70;;;;;;609509;236;26887;-66
2022/09/04 00:32:48;;;;;;;1.60;1.30;;;15.50;61.20;;;;;;606397;235;26885;-66
2022/09/04 00:35:16;;;;;;;1.50;1.40;;;15.60;61.50;;;;;;608970;235;26826;-66
2022/09/04 00:37:59;;;;;;;1.27;1.15;;;15.50;62.10;;;;;;614137;232;26548;-66
2022/09/04 00:40:29;;;;;;;1.92;1.35;;;15.50;62.60;;;;;;609201;234;26684;-66
2022/09/04 00:43:24;;;;;;;2.00;1.52;;;15.50;62.50;;;;;;613306;234;26548;-66
2022/09/04 00:46:12;;;;;;;1.95;1.40;;;15.50;62.20;;;;;;612912;234;26656;-66
2022/09/04 00:48:55;;;;;;;1.23;1.20;;;15.40;61.80;;;;;;608440;235;26660;-66
2022/09/04 00:51:29;;;;;;;1.40;1.30;;;15.40;61.90;;;;;;611942;235;26691;-66
2022/09/04 00:54:01;;;;;;;1.10;1.10;;;15.40;63.00;;;;;;612383;235;26954;-66
2022/09/04 00:56:46;;;;;;;1.50;1.40;;;15.40;63.00;;;;;;611517;235;26583;-66
2022/09/04 00:59:24;;;;;;;1.42;1.20;;;15.30;63.10;;;;;;612457;234;26775;-67
2022/09/04 01:01:54;;;;;;;1.15;1.15;;;15.30;64.20;;;;;;611131;235;26824;-66
2022/09/04 01:04:25;;;;;;;1.90;1.25;;;15.30;64.30;;;;;;611411;235;26568;-66
2022/09/04 01:07:06;;;;;;;0.88;0.88;;;15.30;64.40;;;;;;611862;235;26582;-66
2022/09/04 01:09:44;;;;;;;2.12;1.30;;;15.30;63.70;;;;;;612347;234;26555;-66
2022/09/04 01:12:23;;;;;;;1.20;1.20;;;15.30;63.10;;;;;;611834;235;26677;-66
2022/09/04 01:14:56;;;;;;;0.98;0.98;;;15.40;64.20;;;;;;605074;234;26791;-66
2022/09/04 01:17:26;;;;;;;1.75;1.52;;;15.50;63.00;;;;;;603333;238;26591;-66
2022/09/04 01:19:55;;;;;;;1.23;1.20;;;15.50;62.90;;;;;;604234;237;26654;-66
2022/09/04 01:22:43;;;;;;;1.20;1.10;;;15.60;63.10;;;;;;604348;238;26618;-66
2022/09/04 01:25:25;;;;;;;1.37;1.27;;;15.60;63.20;;;;;;604837;237;26892;-66
2022/09/04 01:27:56;;;;;;;1.80;1.23;;;15.60;62.70;;;;;;596474;237;26678;-66
2022/09/04 01:30:23;;;;;;;1.10;1.10;;;15.60;62.20;;;;;;607577;234;26574;-66
2022/09/04 01:33:16;;;;;;;1.30;1.20;;;15.60;62.50;;;;;;612116;234;27332;-66
2022/09/04 01:35:47;;;;;;;1.37;1.30;;;15.60;62.90;;;;;;609628;235;27179;-66
2022/09/04 01:38:16;;;;;;;1.12;1.10;;;15.60;62.60;;;;;;607726;235;26855;-67
2022/09/04 01:40:43;;;;;;;1.73;1.40;;;15.60;62.60;;;;;;609929;236;26557;-66
2022/09/04 01:43:13;;;;;;;1.40;1.30;;;15.60;62.20;;;;;;609869;236;26573;-66
2022/09/04 01:46:09;;;;;;;1.10;1.10;;;15.60;62.20;;;;;;610100;236;26569;-66
2022/09/04 01:48:41;;;;;;;1.23;1.10;;;15.50;62.60;;;;;;613625;232;27037;-66
2022/09/04 01:51:09;;;;;;;1.58;1.30;;;15.50;62.90;;;;;;614009;234;26638;-66
2022/09/04 01:53:37;;;;;;;1.30;1.20;;;15.50;62.10;;;;;;613347;234;26572;-66
2022/09/04 01:56:07;;;;;;;1.35;1.27;;;15.50;62.00;;;;;;612847;234;26594;-66
2022/09/04 01:58:46;;;;;;;1.98;1.20;;;15.40;64.20;;;;;;601344;239;26612;-66
2022/09/04 02:01:13;;;;;;;1.33;1.20;;;15.40;64.20;;;;;;601570;239;26635;-64
2022/09/04 02:03:45;;;;;;;2.55;1.10;;;15.40;63.80;;;;;;600836;239;26852;-67
2022/09/04 02:06:15;;;;;;;1.35;1.25;;;15.40;63.80;;;;;;601068;239;26602;-67
2022/09/04 02:08:49;;;;;;;1.20;1.10;;;15.40;63.50;;;;;;601216;239;26614;-66
2022/09/04 02:11:18;;;;;;;2.40;1.17;;;15.40;63.70;;;;;;601100;239;26605;-66
2022/09/04 02:13:52;;;;;;;1.00;1.00;;;15.40;63.50;;;;;;604737;235;26607;-66
2022/09/04 02:16:18;;;;;;;2.10;1.23;;;15.30;63.60;;;;;;603555;238;26591;-66
2022/09/04 02:18:49;;;;;;;1.83;0.85;;;15.20;63.10;;;;;;603896;238;26590;-66
2022/09/04 02:21:24;;;;;;;0.80;0.80;;;15.20;64.50;;;;;;608272;235;26669;-65
2022/09/04 02:23:57;;;;;;;0.90;0.90;;;15.10;65.10;;;;;;609753;236;26660;-65
2022/09/04 02:26:27;;;;;;;1.70;0.93;;;15.10;64.70;;;;;;611207;235;26839;-65
2022/09/04 02:29:09;;;;;;;1.15;0.80;;;15.00;63.70;;;;;;612093;235;26662;-65
2022/09/04 02:31:53;;;;;;;1.00;1.00;;;15.00;63.00;;;;;;611909;235;27210;-65
2022/09/04 02:34:37;;;;;;;1.05;1.05;;;15.00;64.70;;;;;;607683;235;26654;-65
2022/09/04 02:37:10;;;;;;;1.35;1.05;;;14.90;63.70;;;;;;600900;235;26888;-65
2022/09/04 02:40:02;;;;;;;1.92;1.08;;;15.00;63.90;;;;;;611761;234;26871;-65
2022/09/04 02:42:33;;;;;;;0.90;0.90;;;15.00;64.60;;;;;;609206;236;26869;-65
2022/09/04 02:45:04;;;;;;;1.05;1.05;;;14.90;65.30;;;;;;609140;236;26612;-66
2022/09/04 02:47:34;;;;;;;1.15;0.90;;;14.90;65.20;;;;;;608814;232;26585;-66
2022/09/04 02:50:20;;;;;;;1.42;1.33;;;15.00;65.10;;;;;;603982;234;26823;-65
2022/09/04 02:53:07;;;;;;;0.70;0.70;;;15.00;65.90;;;;;;599725;238;26621;-65
2022/09/04 02:55:56;;;;;;;1.27;1.17;;;15.00;64.00;;;;;;603373;238;26873;-65
2022/09/04 02:58:28;;;;;;;1.23;1.08;;;15.00;63.90;;;;;;595889;237;26641;-65
2022/09/04 03:00:57;;;;;;;1.10;1.02;;;15.00;63.90;;;;;;607881;235;26643;-65
2022/09/04 03:03:24;;;;;;;1.00;1.00;;;15.00;64.40;;;;;;607060;237;26831;-65
2022/09/04 03:05:56;;;;;;;1.15;1.05;;;15.00;65.90;;;;;;606521;231;26634;-65
2022/09/04 03:08:25;;;;;;;1.10;1.00;;;15.00;64.70;;;;;;606559;237;26650;-65
2022/09/04 03:10:55;;;;;;;1.10;1.10;;;14.90;64.20;;;;;;608578;235;26706;-65
2022/09/04 03:13:22;;;;;;;0.98;0.98;;;14.90;63.80;;;;;;610117;235;26927;-66
2022/09/04 03:15:53;;;;;;;1.25;1.10;;;14.80;64.10;;;;;;610998;235;26864;-65
2022/09/04 03:18:23;;;;;;;1.62;0.90;;;14.70;64.10;;;;;;612552;234;26892;-65
2022/09/04 03:20:54;;;;;;;1.27;0.88;;;14.70;64.10;;;;;;608228;235;26655;-65
2022/09/04 03:23:21;;;;;;;1.30;1.20;;;14.70;65.60;;;;;;604380;238;26587;-65
2022/09/04 03:26:19;;;;;;;1.23;1.20;;;14.60;64.40;;;;;;604154;238;26642;-65
2022/09/04 03:28:53;;;;;;;1.00;0.90;;;14.50;66.30;;;;;;604528;238;26575;-66
2022/09/04 03:31:23;;;;;;;1.20;1.20;;;14.40;65.50;;;;;;604443;235;26626;-66
2022/09/04 03:33:52;;;;;;;0.90;0.90;;;14.40;65.50;;;;;;605264;236;26816;-66
2022/09/04 03:36:21;;;;;;;1.20;1.10;;;14.40;65.20;;;;;;605058;236;26879;-66
2022/09/04 03:38:49;;;;;;;1.02;1.02;;;14.40;66.20;;;;;;604191;238;26868;-66
2022/09/04 03:41:18;;;;;;;1.08;1.00;;;14.40;66.70;;;;;;608638;234;26654;-66
2022/09/04 03:43:53;;;;;;;1.00;0.90;;;14.30;65.60;;;;;;610828;235;26664;-66
2022/09/04 03:46:24;;;;;;;1.10;1.10;;;14.30;66.40;;;;;;612156;235;26864;-66
2022/09/04 03:49:04;;;;;;;0.80;0.80;;;14.30;66.40;;;;;;611645;230;26647;-66
2022/09/04 03:51:38;;;;;;;0.90;0.90;;;14.30;66.80;;;;;;609500;236;26635;-66
2022/09/04 03:54:31;;;;;;;1.02;0.90;;;14.20;67.00;;;;;;609390;236;26596;-65
2022/09/04 03:56:59;;;;;;;1.20;1.10;;;14.20;67.50;;;;;;608555;236;26916;-66
2022/09/04 03:59:33;;;;;;;1.17;1.10;;;14.20;67.40;;;;;;608344;236;26607;-66
2022/09/04 04:02:27;;;;;;;1.00;0.95;;;14.20;67.60;;;;;;604198;237;26622;-66
2022/09/04 04:04:56;;;;;;;0.80;0.80;;;14.20;67.70;;;;;;603026;236;26618;-66
2022/09/04 04:07:34;;;;;;;1.10;1.10;;;14.20;67.10;;;;;;603905;238;27236;-66
2022/09/04 04:10:07;;;;;;;0.80;0.80;;;14.10;67.20;;;;;;604367;238;26586;-65
2022/09/04 04:12:41;;;;;;;1.00;1.00;;;14.10;66.60;;;;;;608537;234;26654;-65
2022/09/04 04:15:23;;;;;;;0.82;0.82;;;14.10;67.00;;;;;;610136;235;26893;-65
2022/09/04 04:18:14;;;;;;;1.05;0.90;;;14.00;67.60;;;;;;610773;235;26632;-66
2022/09/04 04:21:03;;;;;;;0.90;0.90;;;14.00;68.30;;;;;;598849;235;26653;-62
2022/09/04 04:23:55;;;;;;;1.05;0.90;;;14.00;68.20;;;;;;612196;235;26851;-62
2022/09/04 04:26:21;;;;;;;0.90;0.90;;;13.90;69.40;;;;;;607817;235;26861;-62
2022/09/04 04:28:58;;;;;;;0.95;0.95;;;13.90;66.80;;;;;;612153;235;26636;-62
2022/09/04 04:31:38;;;;;;;0.93;0.90;;;13.90;68.10;;;;;;611159;235;26832;-62
2022/09/04 04:34:10;;;;;;;1.20;1.10;;;13.90;69.10;;;;;;609637;236;26862;-62
2022/09/04 04:36:41;;;;;;;1.08;1.00;;;13.80;68.10;;;;;;609465;236;26624;-62
2022/09/04 04:39:23;;;;;;;1.00;1.00;;;13.80;68.00;;;;;;609179;236;26598;-62
2022/09/04 04:42:10;;;;;;;1.58;1.08;;;13.80;69.10;;;;;;604399;235;26869;-62
2022/09/04 04:48:06;;;;;;;1.20;1.02;;;13.80;68.90;;;;;;602300;237;26610;-62
2022/09/04 04:50:34;;;;;;;1.10;1.00;;;13.80;69.20;;;;;;604917;237;26609;-62
2022/09/04 04:53:02;;;;;;;0.90;0.90;;;13.80;68.20;;;;;;605563;237;26602;-62
2022/09/04 04:55:32;;;;;;;1.10;1.00;;;13.80;68.30;;;;;;604873;236;26686;-62
2022/09/04 04:58:29;;;;;;;0.80;0.80;;;13.80;68.10;;;;;;604349;238;26648;-61
2022/09/04 05:01:16;;;;;;;0.90;0.90;;;13.80;69.80;;;;;;609904;235;26603;-62
2022/09/04 05:03:52;;;;;;;1.00;1.00;;;13.80;70.60;;;;;;606676;235;26838;-62
2022/09/04 05:06:20;;;;;;;1.00;1.00;;;13.80;68.70;;;;;;609553;236;27122;-61
2022/09/04 05:09:07;;;;;;;0.52;0.52;;;13.80;68.30;;;;;;610033;236;26565;-61
2022/09/04 05:12:09;;;;;;;1.10;1.10;;;13.90;69.80;;;;;;603005;235;26635;-61
2022/09/04 05:14:37;;;;;;;1.00;1.00;;;13.90;69.00;;;;;;612231;235;26618;-62
2022/09/04 05:17:16;;;;;;;1.00;1.00;;;13.90;70.30;;;;;;612392;235;26613;-62
2022/09/04 05:19:44;;;;;;;0.93;0.93;;;13.90;70.30;;;;;;608944;235;26602;-62
2022/09/04 05:22:13;;;;;;;1.20;1.10;;;13.90;69.10;;;;;;604578;236;26841;-63
2022/09/04 05:25:01;;;;;;;1.27;1.05;;;14.00;69.70;;;;;;605444;237;26823;-62
2022/09/04 05:27:29;;;;;;;1.33;1.17;;;14.10;69.10;;;;;;601815;237;26653;-62
2022/09/04 05:29:59;;;;;;;1.00;0.98;;;14.00;68.10;;;;;;608387;234;26975;-62
2022/09/04 05:32:30;;;;;;;1.30;1.20;;;14.10;68.10;;;;;;612623;234;27371;-62
2022/09/04 05:35:07;;;;;;;1.08;1.05;;;14.20;67.60;;;;;;612640;235;26598;-62
2022/09/04 05:37:50;;;;;;;1.08;1.00;;;14.30;69.20;;;;;;611190;234;26584;-62
2022/09/04 05:40:33;;;;;;;1.10;1.10;;;14.20;69.00;;;;;;609815;236;26587;-63
2022/09/04 05:43:17;;;;;;;1.10;1.10;;;14.30;68.20;;;;;;603007;235;26643;-62
2022/09/04 05:45:48;;;;;;;0.93;0.90;;;14.40;69.10;;;;;;607469;235;26829;-63
2022/09/04 05:48:31;;;;;;;1.10;1.00;;;14.40;67.10;;;;;;611627;235;26574;-62
2022/09/04 05:50:59;;;;;;;1.62;1.33;;;14.50;67.00;;;;;;597155;237;26878;-62
2022/09/04 05:53:27;;;;;;;1.15;1.05;;;14.50;66.60;;;;;;608612;235;26804;-62
2022/09/04 05:55:57;;;;;;;1.05;1.05;;;14.60;67.60;;;;;;606005;235;27031;-63
2022/09/04 05:58:46;;;;;;;1.00;1.00;;;14.70;68.40;;;;;;603448;238;26590;-62
2022/09/04 06:01:30;;;;;;;1.00;1.00;;;14.70;67.70;;;;;;604098;238;26626;-62
2022/09/04 06:04:06;;;;;;;2.03;1.10;;;14.80;67.00;;;;;;594685;238;26993;-62
2022/09/04 06:06:52;;;;;;;1.23;1.12;;;14.90;67.10;;;;;;608696;235;26995;-62
2022/09/04 06:09:25;;;;;;;1.50;1.40;;;15.10;66.20;;;;;;612004;235;26897;-62
2022/09/04 06:11:56;;;;;;;1.37;1.27;;;15.10;66.10;;;;;;612001;235;26660;-62
2022/09/04 06:14:38;;;;;;;1.12;1.10;;;15.20;66.20;;;;;;611289;235;26969;-62
2022/09/04 06:17:23;;;;;;;1.23;1.12;;;15.20;64.90;;;;;;600246;234;26692;-62
2022/09/04 06:19:52;;;;;;;1.58;1.48;;;15.40;65.20;;;;;;606915;234;26594;-62
2022/09/04 06:22:49;;;;;;;1.30;1.20;;;15.40;64.40;;;;;;603830;238;26590;-62
2022/09/04 06:25:19;;;;;;;1.10;1.10;;;15.60;66.30;;;;;;605235;235;26607;-62
2022/09/04 06:27:47;;;;;;;1.05;1.05;;;15.80;66.40;;;;;;611739;235;26618;-62
2022/09/04 06:30:14;;;;;;;1.20;1.17;;;15.80;64.50;;;;;;612659;234;26825;-63
2022/09/04 06:32:43;;;;;;;1.30;1.20;;;15.80;65.00;;;;;;612730;234;26668;-62
2022/09/04 06:35:31;;;;;;;1.30;1.20;;;15.80;66.30;;;;;;613424;232;26624;-62
2022/09/04 06:38:37;;;;;;;1.20;1.20;;;15.80;64.80;;;;;;605462;234;26612;-62
2022/09/04 06:41:19;;;;;;;1.10;1.00;;;15.80;64.80;;;;;;595870;237;26659;-62
2022/09/04 06:43:48;;;;;;;1.20;1.10;;;15.80;66.30;;;;;;608720;234;26567;-63
2022/09/04 06:46:18;;;;;;;1.30;1.20;;;15.90;65.50;;;;;;610202;235;26588;-62
2022/09/04 06:48:53;;;;;;;1.23;1.10;;;16.00;66.00;;;;;;612656;235;26627;-63
2022/09/04 06:51:40;;;;;;;1.08;0.95;;;16.10;65.10;;;;;;612634;234;26893;-64
2022/09/04 06:54:17;;;;;;;8.38;1.83;;;16.30;64.80;;;;;;608541;235;26637;-62
2022/09/04 06:56:44;;;;;;;2.37;1.62;;;16.40;65.80;;;;;;609103;234;27282;-63
2022/09/04 06:59:33;;;;;;;4.15;1.70;;;16.50;64.40;;;;;;606085;235;26586;-61
2022/09/04 07:02:18;;;;;;;3.75;1.62;;;16.60;64.50;;;;;;605465;234;26653;-63
2022/09/04 07:05:02;;;;;;;1.58;1.40;;;16.60;64.50;;;;;;608152;234;26933;-63
2022/09/04 07:07:44;;;;;;;1.20;1.10;;;16.70;64.20;;;;;;604001;235;26578;-63
2022/09/04 07:10:27;;;;;;;1.40;1.30;;;16.80;65.60;;;;;;609141;235;26635;-63
2022/09/04 07:13:20;;;;;;;1.80;1.30;;;16.80;65.50;;;;;;604514;235;26657;-65
2022/09/04 07:15:46;;;;;;;2.35;1.60;;;16.90;64.50;;;;;;608183;235;26634;-65
2022/09/04 07:18:20;;;;;;;2.10;1.30;;;17.00;64.30;;;;;;608270;235;26583;-65
2022/09/04 07:21:01;;;;;;;3.53;1.40;;;17.00;64.70;;;;;;608935;234;26961;-68
2022/09/04 07:23:31;;;;;;;2.58;1.23;;;17.10;65.70;;;;;;607223;235;26923;-67
2022/09/04 07:26:12;;;;;;;1.48;1.37;;;17.20;65.90;;;;;;608256;235;26656;-68
2022/09/04 07:28:41;;;;;;;1.42;1.33;;;17.20;65.60;;;;;;607267;235;26665;-67
2022/09/04 07:31:11;;;;;;;2.10;1.45;;;17.30;64.30;;;;;;608806;235;26612;-67
2022/09/04 07:33:59;;;;;;;1.77;1.40;;;17.30;64.40;;;;;;605699;235;26645;-67
2022/09/04 07:36:31;;;;;;;4.37;1.55;;;17.40;65.10;;;;;;606613;230;26854;-67
2022/09/04 07:39:12;;;;;;;2.00;1.80;;;17.50;65.70;;;;;;609674;234;26774;-67
2022/09/04 07:41:55;;;;;;;1.85;1.55;;;17.60;64.60;;;;;;605494;235;26663;-67
2022/09/04 07:44:33;;;;;;;1.85;1.75;;;17.60;64.50;;;;;;608289;235;26655;-68
2022/09/04 07:47:01;;;;;;;3.20;1.90;;;17.60;65.40;;;;;;610763;233;26650;-67
2022/09/04 07:49:34;;;;;;;2.10;1.90;;;17.70;65.50;;;;;;608757;234;26629;-67
2022/09/04 07:52:06;;;;;;;3.35;1.70;;;17.80;64.90;;;;;;608359;234;26658;-67
2022/09/04 07:54:35;;;;;;;2.15;1.95;;;17.90;65.40;;;;;;604760;235;26583;-67
2022/09/04 07:57:07;;;;;;;1.05;1.05;;;17.90;65.40;;;;;;611432;234;26585;-67
2022/09/04 07:59:45;;;;;;;1.02;1.02;;;18.00;65.10;;;;;;607090;234;26857;-67
2022/09/04 08:02:19;;;;;;;5.70;1.77;;;18.30;64.90;;;;;;609386;234;27074;-67
2022/09/04 08:05:04;;;;;;;3.20;2.00;;;18.30;65.40;;;;;;611169;234;26557;-67
2022/09/04 08:07:48;;;;;;;1.75;1.55;;;18.30;65.40;;;;;;608670;235;27124;-67
2022/09/04 08:10:25;;;;;;;1.95;1.45;;;18.30;65.30;;;;;;607941;235;26620;-67
2022/09/04 08:12:56;;;;;;;2.67;1.70;;;18.40;65.80;;;;;;608294;235;26651;-67
2022/09/04 08:15:24;;;;;;;2.95;1.80;;;18.60;65.40;;;;;;605601;235;26590;-67
2022/09/04 08:18:03;;;;;;;1.20;1.20;;;18.90;64.90;;;;;;605054;235;26566;-65
2022/09/04 08:20:51;;;;;;;1.35;1.25;;;18.90;64.90;;;;;;607766;236;26646;-69
2022/09/04 08:23:31;;;;;;;2.00;1.75;;;19.00;65.20;;;;;;604606;235;26972;-65
2022/09/04 08:26:16;;;;;;;5.00;1.67;;;19.00;64.50;;;;;;605131;235;26601;-65
2022/09/04 08:29:01;;;;;;;1.90;1.80;;;19.00;65.40;;;;;;609017;235;26642;-65
2022/09/04 08:31:31;;;;;;;2.37;1.65;;;19.10;65.10;;;;;;595816;237;26875;-66
2022/09/04 08:34:06;;;;;;;2.47;1.90;;;19.20;64.80;;;;;;606075;235;26636;-65
2022/09/04 08:36:36;;;;;;;1.40;1.30;;;19.20;65.20;;;;;;609481;234;26649;-64
2022/09/04 08:39:09;;;;;;;1.58;1.42;;;19.20;64.70;;;;;;609801;235;26653;-65
2022/09/04 08:41:48;;;;;;;3.58;1.92;;;19.30;65.50;;;;;;608561;235;26914;-63
2022/09/04 08:44:43;;;;;;;3.83;1.70;;;19.30;64.20;;;;;;610064;235;26615;-63
2022/09/04 08:47:21;;;;;;;1.95;1.50;;;19.40;65.30;;;;;;603801;234;26842;-64
2022/09/04 08:50:08;;;;;;;52.35;9.27;;;19.70;65.00;;;;;;609928;235;26661;-63
2022/09/04 08:52:46;;;;;;;50.38;8.80;;;19.70;64.40;;;;;;598705;237;27312;-63
2022/09/04 08:55:20;;;;;;;22.00;5.87;;;19.60;64.50;;;;;;606443;235;26862;-63
2022/09/04 08:58:11;;;;;;;18.27;4.85;;;19.70;65.40;;;;;;609229;233;26618;-64
2022/09/04 09:01:03;;;;;;;11.40;4.03;;;19.70;65.00;;;;;;608824;234;26618;-64
2022/09/04 09:03:40;;;;;;;2.58;2.15;;;19.90;64.50;;;;;;599677;234;26679;-64
2022/09/04 09:06:28;;;;;;;2.33;2.15;;;19.90;64.40;;;;;;608120;234;26837;-64
2022/09/04 09:09:08;;;;;;;1.83;1.73;;;20.00;64.30;;;;;;606181;234;26659;-63
2022/09/04 09:14:21;;;;;;;2.20;1.92;;;20.10;63.70;;;;;;608388;235;26685;-64
2022/09/04 09:17:18;;;;;;;1.98;1.80;;;20.20;64.30;;;;;;603668;235;26598;-63
2022/09/04 09:19:45;;;;;;;2.03;1.83;;;20.20;63.90;;;;;;606600;235;26864;-63
2022/09/04 09:22:28;;;;;;;1.45;1.35;;;20.30;64.30;;;;;;612565;234;26688;-62
2022/09/04 09:25:15;;;;;;;6.03;2.67;;;20.40;64.10;;;;;;606397;235;26640;-63
2022/09/04 09:27:53;;;;;;;2.65;2.20;;;20.40;62.30;;;;;;603992;235;26851;-63
2022/09/04 09:30:20;;;;;;;1.65;1.52;;;20.50;62.70;;;;;;607277;235;26582;-64
2022/09/04 09:32:57;;;;;;;1.70;1.60;;;20.50;62.20;;;;;;604893;235;26851;-64
2022/09/04 09:35:36;;;;;;;4.45;1.90;;;20.60;62.70;;;;;;607453;234;27265;-63
2022/09/04 09:38:09;;;;;;;3.10;1.80;;;20.60;63.00;;;;;;607748;235;26669;-62
2022/09/04 09:40:59;;;;;;;87.68;16.40;;;20.80;62.10;;;;;;606576;235;26561;-64
2022/09/04 09:43:49;;;;;;;68.35;14.90;;;20.70;62.10;;;;;;598626;237;26645;-64
2022/09/04 09:46:38;;;;;;;54.35;12.13;;;20.80;63.20;;;;;;597111;237;26644;-63
2022/09/04 09:49:32;;;;;;;35.55;8.73;;;20.80;64.40;;;;;;596576;234;26670;-64
2022/09/04 09:52:07;;;;;;;10.43;3.37;;;20.90;64.30;;;;;;602105;235;26709;-63
2022/09/04 09:54:36;;;;;;;22.00;5.80;;;20.90;64.30;;;;;;607199;235;26651;-63
2022/09/04 09:57:07;;;;;;;6.93;2.62;;;21.00;63.70;;;;;;603591;235;27254;-63
2022/09/04 09:59:36;;;;;;;7.05;3.72;;;21.00;62.20;;;;;;608223;234;26634;-63
2022/09/04 10:02:20;;;;;;;3.92;2.33;;;21.10;61.10;;;;;;606472;235;26687;-64
2022/09/04 10:04:50;;;;;;;2.37;2.03;;;21.20;62.50;;;;;;613547;234;26656;-63
2022/09/04 10:07:35;;;;;;;1.87;1.67;;;21.20;62.40;;;;;;608938;235;26671;-63
2022/09/04 10:10:39;;;;;;;1.80;1.70;;;21.30;61.40;;;;;;605512;234;26642;-63
2022/09/04 10:13:09;;;;;;;1.80;1.67;;;21.40;60.80;;;;;;592803;234;26684;-63
2022/09/04 10:15:56;;;;;;;3.58;1.65;;;21.40;63.20;;;;;;607741;234;26574;-63
2022/09/04 10:18:24;;;;;;;2.47;1.87;;;21.50;60.90;;;;;;607559;234;26592;-63
2022/09/04 10:20:54;;;;;;;1.15;1.12;;;21.60;61.70;;;;;;608473;235;26597;-63
2022/09/04 10:23:25;;;;;;;1.70;1.60;;;21.70;60.50;;;;;;609550;236;26593;-63
2022/09/04 10:26:03;;;;;;;1.73;1.62;;;21.60;60.40;;;;;;610129;234;26587;-63
2022/09/04 10:28:50;;;;;;;3.42;1.90;;;21.70;61.50;;;;;;608270;235;26885;-62
2022/09/04 10:31:28;;;;;;;1.70;1.60;;;21.80;59.90;;;;;;609405;234;26882;-62
2022/09/04 10:34:01;;;;;;;2.00;1.85;;;21.90;59.20;;;;;;606015;235;26581;-62
2022/09/04 10:36:31;;;;;;;1.75;1.65;;;22.00;59.50;;;;;;603449;238;26606;-62
2022/09/04 10:41:57;;;;;;;2.10;1.90;;;22.10;58.40;;;;;;608316;235;26639;-62
2022/09/04 10:44:28;;;;;;;4.05;1.70;;;22.00;58.30;;;;;;602053;236;26621;-63
2022/09/04 10:47:02;;;;;;;2.47;1.73;;;22.10;58.10;;;;;;609338;235;26567;-62
2022/09/04 10:49:55;;;;;;;1.80;1.70;;;22.20;58.30;;;;;;610404;235;26620;-62
2022/09/04 10:52:53;;;;;;;1.70;1.60;;;22.40;58.00;;;;;;607158;235;26607;-62
2022/09/04 10:55:25;;;;;;;1.42;1.20;;;22.50;57.70;;;;;;605765;235;26585;-62
2022/09/04 10:57:52;;;;;;;2.30;2.10;;;22.40;57.60;;;;;;610236;234;26897;-63
2022/09/04 11:00:20;;;;;;;3.03;2.00;;;22.50;57.90;;;;;;606033;235;26905;-63
2022/09/04 11:03:06;;;;;;;1.85;1.75;;;22.50;57.80;;;;;;605196;235;27073;-63
2022/09/04 11:06:09;;;;;;;2.85;1.87;;;22.60;57.10;;;;;;597390;234;26610;-63
2022/09/04 11:08:50;;;;;;;1.85;1.75;;;22.60;57.30;;;;;;599382;232;26603;-63
2022/09/04 11:11:21;;;;;;;1.87;1.77;;;22.80;57.30;;;;;;608133;236;26595;-63
2022/09/04 11:13:57;;;;;;;1.92;1.70;;;22.80;56.40;;;;;;605911;235;26562;-64
2022/09/04 11:16:32;;;;;;;2.20;2.00;;;22.70;56.40;;;;;;608836;233;26637;-63
2022/09/04 11:19:21;;;;;;;2.92;1.80;;;22.80;57.40;;;;;;606274;235;26601;-63
2022/09/04 11:21:58;;;;;;;1.83;1.73;;;22.90;57.30;;;;;;612213;232;26666;-63
2022/09/04 11:24:41;;;;;;;1.75;1.65;;;23.00;57.60;;;;;;609443;234;26858;-63
2022/09/04 11:27:28;;;;;;;1.55;1.45;;;23.10;56.40;;;;;;601079;239;26688;-64
2022/09/04 11:29:57;;;;;;;3.35;1.87;;;23.00;56.30;;;;;;604205;235;26646;-63
2022/09/04 11:32:30;;;;;;;1.45;1.35;;;23.10;57.10;;;;;;609224;234;27144;-65
2022/09/04 11:35:04;;;;;;;1.30;1.30;;;23.10;56.30;;;;;;607400;235;26882;-64
2022/09/04 11:37:36;;;;;;;1.33;1.33;;;23.20;56.80;;;;;;610504;235;26646;-63
2022/09/04 11:40:38;;;;;;;1.90;1.80;;;23.30;56.80;;;;;;606761;235;26598;-63
2022/09/04 11:43:24;;;;;;;1.85;1.75;;;23.30;56.80;;;;;;609606;235;26648;-64
2022/09/04 11:46:14;;;;;;;2.35;1.73;;;23.50;56.60;;;;;;611791;235;26580;-63
2022/09/04 11:49:06;;;;;;;1.65;1.55;;;23.60;55.30;;;;;;609591;235;26604;-63
2022/09/04 11:51:44;;;;;;;1.58;1.48;;;23.50;55.30;;;;;;597759;235;26682;-64
2022/09/04 11:54:22;;;;;;;1.20;1.20;;;23.60;55.80;;;;;;606143;235;26615;-64
2022/09/04 11:57:12;;;;;;;2.05;1.42;;;23.70;55.30;;;;;;609196;235;26638;-64
2022/09/04 11:59:54;;;;;;;1.50;1.40;;;23.70;55.30;;;;;;608452;235;26855;-64
2022/09/04 12:02:22;;;;;;;2.47;1.70;;;23.80;55.30;;;;;;604095;235;26852;-64
2022/09/04 12:05:09;;;;;;;1.65;1.55;;;23.90;55.40;;;;;;605457;235;26591;-64
2022/09/04 12:07:44;;;;;;;2.05;1.70;;;24.00;55.30;;;;;;609379;235;27299;-64
2022/09/04 12:10:25;;;;;;;1.20;1.12;;;24.00;55.40;;;;;;605019;232;26587;-64
2022/09/04 12:13:15;;;;;;;2.97;2.10;;;24.00;55.40;;;;;;607961;235;27308;-64
2022/09/04 12:15:55;;;;;;;2.08;1.85;;;24.20;55.50;;;;;;609380;234;26623;-65
2022/09/04 12:18:30;;;;;;;3.00;2.25;;;24.10;55.40;;;;;;607164;235;26859;-64
2022/09/04 12:21:34;;;;;;;2.35;2.15;;;24.20;55.10;;;;;;609412;235;26662;-64
2022/09/04 12:23:59;;;;;;;2.62;1.95;;;24.20;54.80;;;;;;586656;236;26612;-64
2022/09/04 12:26:28;;;;;;;3.87;2.45;;;24.50;54.90;;;;;;604451;235;26642;-63
2022/09/04 12:29:01;;;;;;;1.30;1.20;;;24.50;54.80;;;;;;604070;235;26589;-63
2022/09/04 12:31:50;;;;;;;6.10;2.03;;;24.50;54.30;;;;;;608091;234;26685;-67
2022/09/04 12:34:39;;;;;;;1.80;1.70;;;24.40;54.00;;;;;;607227;233;26645;-64
2022/09/04 12:37:34;;;;;;;2.35;1.85;;;24.50;53.80;;;;;;607471;235;26649;-64
2022/09/04 12:40:25;;;;;;;1.80;1.70;;;24.70;54.10;;;;;;610471;231;26575;-64
2022/09/04 12:42:56;;;;;;;1.85;1.67;;;24.70;54.00;;;;;;607317;236;26848;-64
2022/09/04 12:45:24;;;;;;;2.22;2.03;;;24.90;54.40;;;;;;609671;236;26912;-64
2022/09/04 12:47:58;;;;;;;2.65;1.92;;;25.20;53.90;;;;;;610375;236;26555;-63
2022/09/04 12:50:29;;;;;;;1.85;1.75;;;25.60;53.50;;;;;;609729;236;26782;-64
2022/09/04 12:53:14;;;;;;;2.37;1.87;;;25.90;52.40;;;;;;609733;236;26644;-63
2022/09/04 12:55:48;;;;;;;4.28;1.60;;;26.20;51.30;;;;;;608920;236;26636;-65
2022/09/04 12:58:25;;;;;;;1.92;1.40;;;26.20;51.40;;;;;;606736;235;26617;-64
2022/09/04 13:00:59;;;;;;;6.50;2.10;;;26.30;51.80;;;;;;604061;238;26643;-64
2022/09/04 13:03:27;;;;;;;1.70;1.60;;;26.30;51.10;;;;;;603662;238;26824;-64
2022/09/04 13:06:02;;;;;;;1.98;1.87;;;26.00;51.10;;;;;;604490;237;26600;-64
2022/09/04 13:08:28;;;;;;;1.62;1.52;;;26.00;50.80;;;;;;603383;238;26626;-64
2022/09/04 13:11:24;;;;;;;1.65;1.55;;;26.20;51.10;;;;;;603725;238;26606;-64
2022/09/04 13:14:06;;;;;;;1.50;1.40;;;26.20;49.60;;;;;;594785;238;26573;-64
2022/09/04 13:16:30;;;;;;;1.70;1.60;;;26.00;49.90;;;;;;603669;236;26601;-64
2022/09/04 13:18:59;;;;;;;1.55;1.50;;;25.90;49.60;;;;;;604020;238;26808;-64
2022/09/04 13:21:50;;;;;;;1.65;1.55;;;25.80;49.50;;;;;;603571;238;26602;-64
2022/09/04 13:24:38;;;;;;;4.82;4.37;;;25.80;49.50;;;;;;605118;235;26601;-63
2022/09/04 13:27:20;;;;;;;9.65;8.70;;;25.80;50.40;;;;;;609507;235;26919;-63
2022/09/04 13:29:59;;;;;;;5.57;5.10;;;25.60;49.70;;;;;;609056;235;26874;-63
2022/09/04 13:32:30;;;;;;;8.38;7.35;;;25.50;50.20;;;;;;604009;238;26601;-64
2022/09/04 13:35:15;;;;;;;2.90;2.53;;;25.50;50.10;;;;;;604585;237;26573;-64
2022/09/04 13:38:08;;;;;;;4.93;4.47;;;25.50;50.20;;;;;;603555;238;26560;-63
2022/09/04 13:41:07;;;;;;;8.63;7.87;;;25.70;49.20;;;;;;607865;235;26607;-64
2022/09/04 13:43:42;;;;;;;6.47;5.95;;;25.80;48.70;;;;;;612936;232;26611;-63
2022/09/04 13:46:10;;;;;;;14.80;13.60;;;25.80;48.70;;;;;;615446;233;26595;-63
2022/09/04 13:48:39;;;;;;;13.55;12.43;;;25.90;48.80;;;;;;615523;234;26573;-63